createdAt,value
2023-05-07T00:02:04.916Z,18.50
2023-05-07T00:04:31.483Z,18.40
2023-05-07T00:06:57.977Z,18.50
2023-05-07T00:09:24.513Z,18.40
2023-05-07T00:11:50.982Z,18.50
2023-05-07T00:14:17.483Z,18.40
2023-05-07T00:16:44.033Z,18.40
2023-05-07T00:19:10.755Z,18.40
2023-05-07T00:21:37.278Z,18.40
2023-05-07T00:24:03.784Z,18.40
2023-05-07T00:26:30.252Z,18.40
2023-05-07T00:28:56.749Z,18.50
2023-05-07T00:31:23.301Z,18.50
2023-05-07T00:33:49.849Z,18.50
2023-05-07T00:36:16.339Z,18.50
2023-05-07T00:38:42.829Z,18.40
2023-05-07T00:41:09.295Z,18.50
2023-05-07T00:43:35.785Z,18.40
2023-05-07T00:46:02.330Z,18.40
2023-05-07T00:48:28.893Z,18.40
2023-05-07T00:50:55.362Z,18.30
2023-05-07T00:53:21.885Z,18.40
2023-05-07T00:55:48.367Z,18.30
2023-05-07T00:58:19.874Z,18.40
2023-05-07T01:00:46.371Z,18.40
2023-05-07T01:03:12.891Z,18.40
2023-05-07T01:05:39.809Z,18.40
2023-05-07T01:08:07.836Z,18.40
2023-05-07T01:10:34.364Z,18.40
2023-05-07T01:13:00.844Z,18.40
2023-05-07T01:15:27.382Z,18.40
2023-05-07T01:17:53.910Z,18.40
2023-05-07T01:20:20.443Z,18.40
2023-05-07T01:22:46.924Z,18.40
2023-05-07T01:25:13.412Z,18.40
2023-05-07T01:27:39.893Z,18.40
2023-05-07T01:30:07.878Z,18.40
2023-05-07T01:32:34.431Z,18.40
2023-05-07T01:35:00.928Z,18.40
2023-05-07T01:37:27.403Z,18.40
2023-05-07T01:39:53.888Z,18.40
2023-05-07T01:42:20.359Z,18.40
2023-05-07T01:44:46.856Z,18.40
2023-05-07T01:47:13.360Z,18.40
2023-05-07T01:49:39.838Z,18.40
2023-05-07T01:52:06.329Z,18.40
2023-05-07T01:54:32.859Z,18.40
2023-05-07T01:56:59.379Z,18.40
2023-05-07T01:59:25.841Z,18.40
2023-05-07T02:01:52.353Z,18.30
2023-05-07T02:04:18.860Z,18.40
2023-05-07T02:06:45.368Z,18.40
2023-05-07T02:09:11.850Z,18.40
2023-05-07T02:11:38.367Z,18.40
2023-05-07T02:14:04.835Z,18.40
2023-05-07T02:16:31.396Z,18.40
2023-05-07T02:18:57.907Z,18.30
2023-05-07T02:21:24.415Z,18.40
2023-05-07T02:23:50.892Z,18.40
2023-05-07T02:26:17.392Z,18.40
2023-05-07T02:28:43.866Z,18.40
2023-05-07T02:31:10.372Z,18.40
2023-05-07T02:33:36.851Z,18.30
2023-05-07T02:36:03.351Z,18.40
2023-05-07T02:38:29.834Z,18.30
2023-05-07T02:41:01.964Z,18.40
2023-05-07T02:43:28.468Z,18.40
2023-05-07T02:45:54.981Z,18.40
2023-05-07T02:48:21.477Z,18.40
2023-05-07T02:50:47.968Z,18.40
2023-05-07T02:53:14.478Z,18.40
2023-05-07T02:55:42.039Z,18.40
2023-05-07T02:58:08.532Z,18.40
2023-05-07T03:00:35.052Z,18.40
2023-05-07T03:03:01.593Z,18.40
2023-05-07T03:05:31.973Z,18.40
2023-05-07T03:07:59.400Z,18.40
2023-05-07T03:10:25.893Z,18.40
2023-05-07T03:12:52.453Z,18.40
2023-05-07T03:15:18.976Z,18.40
2023-05-07T03:17:45.526Z,18.40
2023-05-07T03:20:12.111Z,18.40
2023-05-07T03:22:38.776Z,18.40
2023-05-07T03:25:05.225Z,18.30
2023-05-07T03:27:31.718Z,18.30
2023-05-07T03:29:58.199Z,18.40
2023-05-07T03:32:24.721Z,18.40
2023-05-07T03:34:51.250Z,18.40
2023-05-07T03:37:17.720Z,18.40
2023-05-07T03:39:44.189Z,18.40
2023-05-07T03:42:10.672Z,18.30
2023-05-07T03:44:37.148Z,18.40
2023-05-07T03:47:03.644Z,18.40
2023-05-07T03:49:30.155Z,18.40
2023-05-07T03:51:56.674Z,18.40
2023-05-07T03:54:23.198Z,18.30
2023-05-07T03:56:49.683Z,18.30
2023-05-07T03:59:16.187Z,18.30
2023-05-07T04:01:42.741Z,18.30
2023-05-07T04:04:09.291Z,18.30
2023-05-07T04:06:35.785Z,18.30
2023-05-07T04:09:02.274Z,18.30
2023-05-07T04:11:28.799Z,18.30
2023-05-07T04:13:55.326Z,18.30
2023-05-07T04:16:21.868Z,18.30
2023-05-07T04:18:48.450Z,18.30
2023-05-07T04:21:14.942Z,18.30
2023-05-07T04:23:41.428Z,18.30
2023-05-07T04:26:07.906Z,18.30
2023-05-07T04:28:34.396Z,18.30
2023-05-07T04:31:00.877Z,18.30
2023-05-07T04:33:27.364Z,18.30
2023-05-07T04:35:53.831Z,18.30
2023-05-07T04:38:20.307Z,18.30
2023-05-07T04:40:46.774Z,18.20
2023-05-07T04:43:13.254Z,18.30
2023-05-07T04:45:39.781Z,18.30
2023-05-07T04:48:06.304Z,18.30
2023-05-07T04:50:32.820Z,18.40
2023-05-07T04:52:59.302Z,18.30
2023-05-07T04:55:25.786Z,18.30
2023-05-07T04:57:52.297Z,18.30
2023-05-07T05:00:18.802Z,18.30
2023-05-07T05:02:50.148Z,18.30
2023-05-07T05:05:16.741Z,18.30
2023-05-07T05:07:43.225Z,18.40
2023-05-07T05:10:09.920Z,18.30
2023-05-07T05:12:36.601Z,18.30
2023-05-07T05:15:08.065Z,18.30
2023-05-07T05:17:34.577Z,18.30
2023-05-07T05:20:01.104Z,18.30
2023-05-07T05:22:27.571Z,18.40
2023-05-07T05:24:54.079Z,18.30
2023-05-07T05:27:20.551Z,18.40
2023-05-07T05:29:47.056Z,18.30
2023-05-07T05:32:13.543Z,18.30
2023-05-07T05:34:40.068Z,18.30
2023-05-07T05:37:06.552Z,18.40
2023-05-07T05:39:33.059Z,18.40
2023-05-07T05:41:59.545Z,18.40
2023-05-07T05:44:26.057Z,18.40
2023-05-07T05:46:52.675Z,18.40
2023-05-07T05:49:19.225Z,18.40
2023-05-07T05:51:45.696Z,18.40
2023-05-07T05:54:12.182Z,18.30
2023-05-07T05:56:38.646Z,18.40
2023-05-07T05:59:05.185Z,18.30
2023-05-07T06:01:31.732Z,18.40
2023-05-07T06:03:58.217Z,18.40
2023-05-07T06:06:24.721Z,18.40
2023-05-07T06:08:51.196Z,18.40
2023-05-07T06:11:17.724Z,18.40
2023-05-07T06:13:44.208Z,18.40
2023-05-07T06:16:10.737Z,18.40
2023-05-07T06:18:37.228Z,18.40
2023-05-07T06:21:03.718Z,18.40
2023-05-07T06:23:30.189Z,18.50
2023-05-07T06:25:56.686Z,18.40
2023-05-07T06:28:23.183Z,18.40
2023-05-07T06:30:49.658Z,18.40
2023-05-07T06:33:16.132Z,18.40
2023-05-07T06:35:42.621Z,18.40
2023-05-07T06:38:09.085Z,18.40
2023-05-07T06:40:35.574Z,18.40
2023-05-07T06:43:02.055Z,18.40
2023-05-07T06:45:28.571Z,18.40
2023-05-07T06:47:55.090Z,18.50
2023-05-07T06:50:21.592Z,18.40
2023-05-07T06:52:48.094Z,18.40
2023-05-07T06:55:14.590Z,18.50
2023-05-07T06:57:41.100Z,18.50
2023-05-07T07:00:07.577Z,18.50
2023-05-07T07:02:34.098Z,18.40
2023-05-07T07:05:00.647Z,18.50
2023-05-07T07:07:27.201Z,18.40
2023-05-07T07:09:53.677Z,18.50
2023-05-07T07:12:20.180Z,18.40
2023-05-07T07:14:46.655Z,18.50
2023-05-07T07:17:13.125Z,18.50
2023-05-07T07:19:39.619Z,18.50
2023-05-07T07:22:06.159Z,18.50
2023-05-07T07:24:32.653Z,18.40
2023-05-07T07:26:59.141Z,18.50
2023-05-07T07:29:26.147Z,18.50
2023-05-07T07:31:52.702Z,18.50
2023-05-07T07:34:19.283Z,18.50
2023-05-07T07:36:46.962Z,18.50
2023-05-07T07:39:13.687Z,18.50
2023-05-07T07:41:40.177Z,18.50
2023-05-07T07:44:06.694Z,18.50
2023-05-07T07:46:33.207Z,18.50
2023-05-07T07:48:59.771Z,18.50
2023-05-07T07:51:26.252Z,18.50
2023-05-07T07:53:52.759Z,18.50
2023-05-07T07:56:19.246Z,18.50
2023-05-07T07:58:45.748Z,18.50
2023-05-07T08:01:12.238Z,18.50
2023-05-07T08:03:38.866Z,18.50
2023-05-07T08:06:05.381Z,18.50
2023-05-07T08:08:31.897Z,18.50
2023-05-07T08:10:58.391Z,18.50
2023-05-07T08:13:24.999Z,18.50
2023-05-07T08:15:51.597Z,18.40
2023-05-07T08:18:18.085Z,18.50
2023-05-07T08:20:44.563Z,18.50
2023-05-07T08:23:11.073Z,18.50
2023-05-07T08:25:37.593Z,18.50
2023-05-07T08:28:04.090Z,18.50
2023-05-07T08:30:30.625Z,18.50
2023-05-07T08:32:57.188Z,18.50
2023-05-07T08:35:23.754Z,18.50
2023-05-07T08:37:50.233Z,18.50
2023-05-07T08:40:17.000Z,18.50
2023-05-07T08:42:43.616Z,18.50
2023-05-07T08:45:10.114Z,18.50
2023-05-07T08:47:36.645Z,18.50
2023-05-07T08:50:03.153Z,18.60
2023-05-07T08:52:29.640Z,18.50
2023-05-07T08:54:56.345Z,18.50
2023-05-07T08:57:22.827Z,18.50
2023-05-07T08:59:49.309Z,18.60
2023-05-07T09:02:15.884Z,18.60
2023-05-07T09:04:42.440Z,18.60
2023-05-07T09:07:08.936Z,18.60
2023-05-07T09:09:35.423Z,18.60
2023-05-07T09:12:01.889Z,18.60
2023-05-07T09:14:28.375Z,18.60
2023-05-07T09:16:54.838Z,18.60
2023-05-07T09:19:21.324Z,18.60
2023-05-07T09:21:47.825Z,18.60
2023-05-07T09:24:14.314Z,18.60
2023-05-07T09:26:40.807Z,18.60
2023-05-07T09:29:07.277Z,18.60
2023-05-07T09:31:33.802Z,18.60
2023-05-07T09:34:00.319Z,18.70
2023-05-07T09:36:26.828Z,18.60
2023-05-07T09:38:53.305Z,18.60
2023-05-07T09:41:19.798Z,18.60
2023-05-07T09:43:46.273Z,18.60
2023-05-07T09:46:12.933Z,18.70
2023-05-07T09:48:39.525Z,18.60
2023-05-07T09:51:06.006Z,18.70
2023-05-07T09:53:32.506Z,18.70
2023-05-07T09:55:58.974Z,18.70
2023-05-07T09:58:25.455Z,18.70
2023-05-07T10:00:56.325Z,18.70
2023-05-07T10:03:22.986Z,18.70
2023-05-07T10:05:49.589Z,18.70
2023-05-07T10:08:16.072Z,18.70
2023-05-07T10:10:42.548Z,18.70
2023-05-07T10:13:09.087Z,18.80
2023-05-07T10:15:35.668Z,18.90
2023-05-07T10:18:02.292Z,18.70
2023-05-07T10:20:28.864Z,18.80
2023-05-07T10:22:55.390Z,18.70
2023-05-07T10:25:21.876Z,18.80
2023-05-07T10:27:48.401Z,18.80
2023-05-07T10:30:20.527Z,18.80
2023-05-07T10:32:47.092Z,18.80
2023-05-07T10:35:13.727Z,18.80
2023-05-07T10:37:40.340Z,18.80
2023-05-07T10:40:06.827Z,18.80
2023-05-07T10:42:33.329Z,18.80
2023-05-07T10:44:59.819Z,18.80
2023-05-07T10:47:26.386Z,18.80
2023-05-07T10:49:52.913Z,18.80
2023-05-07T10:52:19.527Z,18.80
2023-05-07T10:54:50.551Z,18.80
2023-05-07T10:57:17.026Z,18.90
2023-05-07T10:59:43.573Z,18.90
2023-05-07T11:02:10.187Z,18.90
2023-05-07T11:04:36.822Z,18.90
2023-05-07T11:07:03.346Z,18.90
2023-05-07T11:09:29.852Z,18.90
2023-05-07T11:11:56.337Z,18.90
2023-05-07T11:14:22.850Z,18.90
2023-05-07T11:16:49.427Z,19.00
2023-05-07T11:19:16.200Z,18.90
2023-05-07T11:21:42.734Z,18.90
2023-05-07T11:24:09.277Z,18.90
2023-05-07T11:26:35.770Z,19.00
2023-05-07T11:29:02.312Z,19.00
2023-05-07T11:31:28.856Z,19.00
2023-05-07T11:33:55.359Z,19.00
2023-05-07T11:36:21.830Z,19.00
2023-05-07T11:38:48.507Z,19.00
2023-05-07T11:41:14.988Z,19.00
2023-05-07T11:43:41.547Z,19.00
2023-05-07T11:46:08.115Z,19.00
2023-05-07T11:48:34.694Z,19.00
2023-05-07T11:51:01.169Z,19.00
2023-05-07T11:53:27.653Z,19.00
2023-05-07T11:55:56.359Z,19.00
2023-05-07T11:58:22.861Z,19.00
2023-05-07T12:00:49.347Z,19.10
2023-05-07T12:03:15.898Z,19.00
2023-05-07T12:05:42.428Z,19.10
2023-05-07T12:08:08.916Z,19.10
2023-05-07T12:10:35.408Z,19.00
2023-05-07T12:13:01.924Z,19.10
2023-05-07T12:15:28.442Z,19.10
2023-05-07T12:17:55.023Z,19.10
2023-05-07T12:20:21.646Z,19.10
2023-05-07T12:22:48.118Z,19.10
2023-05-07T12:25:14.880Z,19.10
2023-05-07T12:27:41.622Z,19.10
2023-05-07T12:30:08.288Z,19.10
2023-05-07T12:32:34.935Z,19.10
2023-05-07T12:35:01.438Z,19.10
2023-05-07T12:37:31.048Z,19.20
2023-05-07T12:39:58.894Z,19.20
2023-05-07T12:42:25.367Z,19.10
2023-05-07T12:44:51.863Z,19.10
2023-05-07T12:47:18.370Z,19.20
2023-05-07T12:49:44.850Z,19.20
2023-05-07T12:52:11.325Z,19.20
2023-05-07T12:54:37.820Z,19.20
2023-05-07T12:57:04.311Z,19.20
2023-05-07T12:59:30.798Z,19.20
2023-05-07T13:01:57.332Z,19.20
2023-05-07T13:04:23.857Z,19.20
2023-05-07T13:06:50.354Z,19.20
2023-05-07T13:09:16.830Z,19.20
2023-05-07T13:11:43.326Z,19.20
2023-05-07T13:14:09.803Z,19.20
2023-05-07T13:16:36.325Z,19.20
2023-05-07T13:19:02.841Z,19.30
2023-05-07T13:21:29.351Z,19.20
2023-05-07T13:23:55.821Z,19.20
2023-05-07T13:26:26.782Z,19.20
2023-05-07T13:28:53.766Z,19.20
2023-05-07T13:31:20.293Z,19.20
2023-05-07T13:33:46.786Z,19.20
2023-05-07T13:36:13.268Z,19.20
2023-05-07T13:38:39.743Z,19.20
2023-05-07T13:41:06.234Z,19.20
2023-05-07T13:43:32.719Z,19.20
2023-05-07T13:45:59.232Z,19.20
2023-05-07T13:48:25.761Z,19.20
2023-05-07T13:50:52.234Z,19.20
2023-05-07T13:53:18.728Z,19.20
2023-05-07T13:55:45.221Z,19.30
2023-05-07T13:58:11.733Z,19.20
2023-05-07T14:00:38.204Z,19.30
2023-05-07T14:03:04.906Z,19.30
2023-05-07T14:05:31.492Z,19.30
2023-05-07T14:07:57.988Z,19.30
2023-05-07T14:10:24.480Z,19.30
2023-05-07T14:12:51.019Z,19.30
2023-05-07T14:15:17.529Z,19.30
2023-05-07T14:17:44.094Z,19.30
2023-05-07T14:20:10.844Z,19.20
2023-05-07T14:22:37.494Z,19.30
2023-05-07T14:25:07.156Z,19.30
2023-05-07T14:27:33.974Z,19.30
2023-05-07T14:30:00.449Z,19.30
2023-05-07T14:32:26.988Z,19.30
2023-05-07T14:34:53.510Z,19.30
2023-05-07T14:37:19.977Z,19.30
2023-05-07T14:39:49.948Z,19.30
2023-05-07T14:42:16.712Z,19.30
2023-05-07T14:44:43.261Z,19.20
2023-05-07T14:47:09.838Z,19.30
2023-05-07T14:49:36.379Z,19.20
2023-05-07T14:52:02.869Z,19.30
2023-05-07T14:54:29.370Z,19.30
2023-05-07T14:56:55.851Z,19.30
2023-05-07T14:59:22.364Z,19.30
2023-05-07T15:01:48.904Z,19.30
2023-05-07T15:04:15.505Z,19.30
2023-05-07T15:06:42.073Z,19.30
2023-05-07T15:09:08.564Z,19.30
2023-05-07T15:11:35.042Z,19.30
2023-05-07T15:14:01.531Z,19.40
2023-05-07T15:16:28.048Z,19.30
2023-05-07T15:18:54.569Z,19.40
2023-05-07T15:21:21.044Z,19.40
2023-05-07T15:23:47.522Z,19.40
2023-05-07T15:26:14.024Z,19.40
2023-05-07T15:28:40.863Z,19.40
2023-05-07T15:31:07.362Z,19.30
2023-05-07T15:33:33.846Z,19.40
2023-05-07T15:36:00.332Z,19.30
2023-05-07T15:38:26.824Z,19.30
2023-05-07T15:40:53.862Z,19.40
2023-05-07T15:43:20.407Z,19.40
2023-05-07T15:45:46.916Z,19.40
2023-05-07T15:48:13.400Z,19.50
2023-05-07T15:50:39.895Z,19.50
2023-05-07T15:53:06.405Z,19.50
2023-05-07T15:55:32.918Z,19.50
2023-05-07T15:57:59.389Z,19.40
2023-05-07T16:00:25.890Z,19.40
2023-05-07T16:02:52.463Z,19.40
2023-05-07T16:05:19.045Z,19.40
2023-05-07T16:07:45.521Z,19.40
2023-05-07T16:10:12.020Z,19.40
2023-05-07T16:12:38.614Z,19.40
2023-05-07T16:15:05.145Z,19.40
2023-05-07T16:17:31.639Z,19.40
2023-05-07T16:19:58.129Z,19.40
2023-05-07T16:22:24.636Z,19.40
2023-05-07T16:24:51.133Z,19.40
2023-05-07T16:27:17.617Z,19.40
2023-05-07T16:29:44.098Z,19.40
2023-05-07T16:32:10.578Z,19.40
2023-05-07T16:34:37.066Z,19.40
2023-05-07T16:37:03.541Z,19.50
2023-05-07T16:39:30.060Z,19.40
2023-05-07T16:41:56.601Z,19.40
2023-05-07T16:44:23.068Z,19.40
2023-05-07T16:46:49.576Z,19.40
2023-05-07T16:49:16.124Z,19.40
2023-05-07T16:51:42.613Z,19.40
2023-05-07T16:54:09.108Z,19.40
2023-05-07T16:56:35.610Z,19.40
2023-05-07T16:59:02.097Z,19.40
2023-05-07T17:01:28.696Z,19.40
2023-05-07T17:03:55.280Z,19.40
2023-05-07T17:06:21.950Z,19.40
2023-05-07T17:08:48.426Z,19.40
2023-05-07T17:11:14.918Z,19.40
2023-05-07T17:13:41.401Z,19.40
2023-05-07T17:16:07.918Z,19.40
2023-05-07T17:18:34.465Z,19.40
2023-05-07T17:21:00.949Z,19.40
2023-05-07T17:23:27.424Z,19.40
2023-05-07T17:25:53.916Z,19.40
2023-05-07T17:28:20.405Z,19.40
2023-05-07T17:30:46.886Z,19.40
2023-05-07T17:33:20.953Z,19.30
2023-05-07T17:35:48.351Z,19.40
2023-05-07T17:38:14.844Z,19.40
2023-05-07T17:40:41.333Z,19.40
2023-05-07T17:43:07.868Z,19.40
2023-05-07T17:45:34.382Z,19.40
2023-05-07T17:48:00.950Z,19.40
2023-05-07T17:50:27.461Z,19.40
2023-05-07T17:52:53.976Z,19.40
2023-05-07T17:55:20.439Z,19.40
2023-05-07T17:57:46.924Z,19.40
2023-05-07T18:00:13.655Z,19.40
2023-05-07T18:02:40.499Z,19.40
2023-05-07T18:05:07.112Z,19.40
2023-05-07T18:07:33.641Z,19.40
2023-05-07T18:10:00.186Z,19.40
2023-05-07T18:12:27.723Z,19.40
2023-05-07T18:14:54.439Z,19.40
2023-05-07T18:17:20.955Z,19.40
2023-05-07T18:19:53.821Z,19.40
2023-05-07T18:22:21.125Z,19.40
2023-05-07T18:24:47.632Z,19.40
2023-05-07T18:27:14.126Z,19.40
2023-05-07T18:29:40.624Z,19.30
2023-05-07T18:32:07.154Z,19.50
2023-05-07T18:34:33.716Z,19.30
2023-05-07T18:37:00.259Z,19.40
2023-05-07T18:39:26.830Z,19.30
2023-05-07T18:41:56.826Z,19.30
2023-05-07T18:44:26.790Z,19.30
2023-05-07T18:46:53.292Z,19.30
2023-05-07T18:49:19.790Z,19.30
2023-05-07T18:51:46.266Z,19.30
2023-05-07T18:54:12.755Z,19.30
2023-05-07T18:56:39.242Z,19.30
2023-05-07T18:59:05.741Z,19.30
2023-05-07T19:01:32.241Z,19.30
2023-05-07T19:03:58.880Z,19.30
2023-05-07T19:06:25.388Z,19.30
2023-05-07T19:08:51.878Z,19.30
2023-05-07T19:11:18.359Z,19.30
2023-05-07T19:13:44.825Z,19.30
2023-05-07T19:16:11.288Z,19.30
2023-05-07T19:18:37.806Z,19.30
2023-05-07T19:21:04.278Z,19.30
2023-05-07T19:23:30.786Z,19.30
2023-05-07T19:25:57.343Z,19.30
2023-05-07T19:28:23.824Z,19.30
2023-05-07T19:30:50.303Z,19.30
2023-05-07T19:33:16.784Z,19.30
2023-05-07T19:35:43.336Z,19.30
2023-05-07T19:38:09.816Z,19.30
2023-05-07T19:40:36.328Z,19.30
2023-05-07T19:43:02.862Z,19.30
2023-05-07T19:45:29.371Z,19.30
2023-05-07T19:47:55.864Z,19.30
2023-05-07T19:50:22.389Z,19.30
2023-05-07T19:52:48.886Z,19.30
2023-05-07T19:55:15.540Z,19.30
2023-05-07T19:57:42.097Z,19.30
2023-05-07T20:00:08.610Z,19.30
2023-05-07T20:02:35.185Z,19.30
2023-05-07T20:05:01.718Z,19.30
2023-05-07T20:07:28.202Z,19.20
2023-05-07T20:09:54.685Z,19.30
2023-05-07T20:12:21.147Z,19.20
2023-05-07T20:14:47.623Z,19.20
2023-05-07T20:17:14.095Z,19.20
2023-05-07T20:19:40.567Z,19.20
2023-05-07T20:22:07.034Z,19.20
2023-05-07T20:24:33.519Z,19.20
2023-05-07T20:27:00.022Z,19.20
2023-05-07T20:29:27.290Z,19.20
2023-05-07T20:31:55.181Z,19.20
2023-05-07T20:34:21.712Z,19.20
2023-05-07T20:36:48.211Z,19.20
2023-05-07T20:39:14.741Z,19.20
2023-05-07T20:41:41.265Z,19.20
2023-05-07T20:44:07.773Z,19.20
2023-05-07T20:46:34.276Z,19.20
2023-05-07T20:49:00.741Z,19.20
2023-05-07T20:51:27.236Z,19.20
2023-05-07T20:53:53.717Z,19.20
2023-05-07T20:56:20.200Z,19.20
2023-05-07T20:58:46.663Z,19.20
2023-05-07T21:01:13.200Z,19.20
2023-05-07T21:03:39.728Z,19.10
2023-05-07T21:06:06.211Z,19.10
2023-05-07T21:08:32.691Z,19.10
2023-05-07T21:10:59.206Z,19.10
2023-05-07T21:13:25.748Z,19.10
2023-05-07T21:15:52.302Z,19.10
2023-05-07T21:18:18.788Z,19.10
2023-05-07T21:20:45.286Z,19.10
2023-05-07T21:23:11.792Z,19.10
2023-05-07T21:25:38.297Z,19.10
2023-05-07T21:28:04.808Z,19.10
2023-05-07T21:30:31.289Z,19.10
2023-05-07T21:35:48.164Z,19.10
2023-05-07T21:38:14.668Z,19.00
2023-05-07T21:40:41.150Z,19.10
2023-05-07T21:43:07.639Z,19.00
2023-05-07T21:45:34.115Z,19.10
2023-05-07T21:48:00.629Z,19.10
2023-05-07T21:50:27.150Z,19.00
2023-05-07T21:52:53.619Z,19.00
2023-05-07T21:55:20.130Z,19.10
2023-05-07T21:58:01.120Z,19.10
2023-05-07T22:00:28.402Z,19.10
2023-05-07T22:02:54.988Z,19.00
2023-05-07T22:05:21.534Z,19.10
2023-05-07T22:07:48.007Z,19.00
2023-05-07T22:10:14.753Z,19.00
2023-05-07T22:12:41.481Z,19.00
2023-05-07T22:15:07.975Z,19.00
2023-05-07T22:17:34.501Z,19.00
2023-05-07T22:20:01.019Z,19.00
2023-05-07T22:22:27.522Z,19.00
2023-05-07T22:24:54.045Z,19.00
2023-05-07T22:27:20.526Z,19.00
2023-05-07T22:29:47.022Z,19.00
2023-05-07T22:32:13.552Z,19.00
2023-05-07T22:34:40.059Z,19.00
2023-05-07T22:37:06.546Z,19.00
2023-05-07T22:39:33.033Z,19.00
2023-05-07T22:41:59.536Z,19.00
2023-05-07T22:44:26.954Z,19.00
2023-05-07T22:46:53.459Z,19.00
2023-05-07T22:49:20.989Z,18.90
2023-05-07T22:51:47.501Z,19.00
2023-05-07T22:54:13.980Z,19.00
2023-05-07T22:56:40.475Z,19.00
2023-05-07T22:59:06.968Z,19.00
2023-05-07T23:01:33.520Z,19.00
2023-05-07T23:04:00.084Z,19.00
2023-05-07T23:06:26.594Z,19.00
2023-05-07T23:08:53.073Z,19.00
2023-05-07T23:11:19.578Z,19.00
2023-05-07T23:13:46.068Z,19.00
2023-05-07T23:16:15.069Z,19.00
2023-05-07T23:18:45.109Z,18.90
2023-05-07T23:21:11.609Z,18.90
2023-05-07T23:23:38.085Z,18.90
2023-05-07T23:26:04.561Z,18.90
2023-05-07T23:28:31.034Z,19.00
2023-05-07T23:30:57.510Z,18.90
2023-05-07T23:33:23.990Z,18.90
2023-05-07T23:35:50.477Z,18.90
2023-05-07T23:38:17.187Z,18.90
2023-05-07T23:40:43.672Z,18.90
2023-05-07T23:43:10.164Z,18.90
2023-05-07T23:45:36.640Z,18.90
2023-05-07T23:48:03.158Z,18.90
2023-05-07T23:50:29.675Z,18.90
2023-05-07T23:52:56.177Z,18.90
2023-05-07T23:55:22.661Z,18.90
2023-05-07T23:57:49.163Z,18.90
